Overview Statistics Trail Chart Weather Telemetry Raw packets
 

This is the latest recevied telemetry packets stored in our database for station/object DF4ND-99. If no packets are shown the sender has not sent any telemetry packets the latest 10 day(s).

Telemetry packets is used to share measurements like repeteater parameters, battery voltage, radiation readings (or any other measurements).

<< 1 2 3 4 >>
Time Press* Temp.in* Hum* eGAS* Temp.out*
1788693044 983.4 hPa 26.4 C deg 38 % 531 - 25.8 C deg
1788691214 983.7 hPa 25.7 C deg 38.1 % 552 - 25.1 C deg
1788689390 984 hPa 24.9 C deg 38.3 % 574 - 24.5 C deg
1788689384 984 hPa 24.9 C deg 38.3 % 574 - 24.5 C deg
1788687568 984.1 hPa 24.6 C deg 38.2 % 585 - 24.1 C deg
1788687554 984.1 hPa 24.6 C deg 38.2 % 585 - 24.1 C deg
1788685723 984.2 hPa 24.3 C deg 38 % 593 - 23.6 C deg
1788683893 984.3 hPa 23.9 C deg 38 % 601 - 23.2 C deg
1788682063 984.2 hPa 23.8 C deg 37.7 % 611 - 23 C deg
1788680268 984.3 hPa 23.5 C deg 37.8 % 622 - 22.8 C deg
1788680233 984.3 hPa 23.5 C deg 37.8 % 622 - 22.8 C deg
1788678421 983.9 hPa 23.3 C deg 37.5 % 620 - 22.5 C deg
1788678403 983.9 hPa 23.3 C deg 37.5 % 620 - 22.5 C deg
1788676572 983.8 hPa 23.9 C deg 37 % 620 - 22.6 C deg
1788674862 983.8 hPa 23.2 C deg 37.4 % 637 - 22.2 C deg
1788674742 983.8 hPa 23.2 C deg 37.4 % 637 - 22.2 C deg
1788673009 983.5 hPa 22.3 C deg 38 % 645 - 22.1 C deg
1788672912 983.5 hPa 22.3 C deg 38 % 645 - 22.1 C deg
1788671102 983.2 hPa 22.3 C deg 38.1 % 638 - 22.1 C deg
1788671082 983.2 hPa 22.3 C deg 38.1 % 638 - 22.1 C deg
1788669257 983.3 hPa 23 C deg 37.7 % 632 - 22.4 C deg
1788669251 983.3 hPa 23 C deg 37.7 % 632 - 22.4 C deg
1788667421 982.9 hPa 22.7 C deg 38.1 % 617 - 22.6 C deg
1788665603 982.9 hPa 22.9 C deg 38.1 % 611 - 22.8 C deg
1788665591 982.9 hPa 22.9 C deg 38.1 % 611 - 22.8 C deg
*Used Equation Coefficients:
Press: 0, 1, 0
Temp.in: 0, 1, 0
Hum: 0, 1, 0
eGAS: 0, 1, 0
Temp.out: 0, 1, 0

  • The parameter names for the analog channels will be Value1, Value2, Value3 (up to Value5) if station has not sent a PARAM-packet that specifies the parameter names for each analog channel.
  • Each analog value is a decimal number between 000 and 255 (according to APRS specifications). The receiver use the telemetry equation coefficientsto to restore the original sensor values. If no EQNS-packet with equation coefficients is sent we will show the values as is (this corresponds to the equation coefficients a=0, b=1 and c=0).
    The sent equation coefficients is used in the equation: a * value2 + b * value + c.
  • The units for the analog values will not be shown if station has not sent a UNIT-packet specifying what unit's to use.
  • The parameter names for the digital bits will be Bit1, Bit2, Bit3 (up to Bit8) if station has not sent a PARAM-packet that specifies the parameter names for each digital bit.
  • All bit labels will be named "On" if station has not sent a UNIT-packet that specifies the label of each bit.
  • A bit is considered to be On when the bit is 1 if station has not sent a BITS-packet that specifies another "Bit sense" (a BITS-packet specify the state of the bits that match the BIT labels)